Time;durP1;ratioP1;P1;durP2;ratioP2;P2;SDS_P1;SDS_P2;PMS_P1;PMS_P2;Temp;Humidity;BMP_temperature;BMP_pressure;BME280_temperature;BME280_humidity;BME280_pressure;Samples;Min_cycle;Max_cycle;Signal;HPM_P1;HPM_P2
2022/06/08 06:38:12;;;;;;;17.13;10.97;;;;;;;14.90;100.00;100634.72;5063561;27;1448762;-82
2022/06/08 06:40:38;;;;;;;15.83;11.23;;;;;;;14.93;100.00;100632.34;5110714;27;20043;-82
2022/06/08 06:43:04;;;;;;;13.03;10.10;;;;;;;14.97;100.00;100635.38;5110312;28;20092;-81
2022/06/08 06:45:30;;;;;;;14.30;9.63;;;;;;;15.02;100.00;100641.75;5108902;28;20036;-81
2022/06/08 06:47:55;;;;;;;13.90;10.13;;;;;;;15.07;100.00;100640.19;5114425;27;20502;-80
2022/06/08 06:50:25;;;;;;;15.43;10.57;;;;;;;15.13;100.00;100648.22;5107584;28;20050;-81
2022/06/08 06:52:50;;;;;;;10.50;8.67;;;;;;;15.15;99.79;100637.03;5109870;28;20084;-81
2022/06/08 06:55:25;;;;;;;14.90;9.50;;;;;;;15.25;100.00;100633.69;5108607;27;20031;-83
2022/06/08 06:57:50;;;;;;;12.53;9.07;;;;;;;15.31;100.00;100622.59;5110423;28;20475;-81
2022/06/08 07:00:16;;;;;;;12.30;8.50;;;;;;;15.41;99.79;100619.19;5107477;27;20059;-82
2022/06/08 07:02:42;;;;;;;12.47;8.97;;;;;;;15.62;100.00;100624.94;5109178;28;20031;-82
2022/06/08 07:05:14;;;;;;;11.03;7.83;;;;;;;15.65;97.54;100624.44;5109706;28;20035;-80
2022/06/08 07:07:39;;;;;;;12.80;8.40;;;;;;;15.78;98.92;100617.81;5110005;28;20031;-82
2022/06/08 07:10:05;;;;;;;11.90;7.20;;;;;;;15.92;97.63;100610.91;5108241;28;20614;-82
2022/06/08 07:12:31;;;;;;;10.70;6.93;;;;;;;16.04;95.34;100605.31;5103567;28;20084;-80
2022/06/08 07:14:56;;;;;;;10.60;6.97;;;;;;;16.22;94.40;100612.38;5107070;28;20147;-80
2022/06/08 07:17:21;;;;;;;10.03;6.80;;;;;;;16.32;95.24;100601.56;5107180;28;20860;-81
2022/06/08 07:19:47;;;;;;;11.90;6.70;;;;;;;16.42;93.27;100600.84;5105865;28;20465;-81
2022/06/08 07:22:12;;;;;;;9.57;6.70;;;;;;;16.58;93.59;100609.19;5102882;28;20596;-79
2022/06/08 07:24:38;;;;;;;8.37;6.77;;;;;;;16.74;93.09;100608.28;5109390;27;20062;-81
2022/06/08 07:27:04;;;;;;;9.30;5.80;;;;;;;16.81;90.51;100588.91;5107629;28;20047;-81
2022/06/08 07:29:30;;;;;;;8.07;5.70;;;;;;;16.93;90.36;100597.81;5106027;28;20047;-81
2022/06/08 07:31:55;;;;;;;7.50;5.50;;;;;;;17.01;90.88;100597.34;5109290;27;20038;-80
2022/06/08 07:34:21;;;;;;;8.17;5.30;;;;;;;17.11;89.42;100584.81;5108110;28;20471;-81
2022/06/08 07:36:47;;;;;;;9.07;5.53;;;;;;;17.33;90.49;100593.75;5109293;28;20411;-82
2022/06/08 07:39:15;;;;;;;7.73;4.80;;;;;;;17.43;86.97;100594.91;5108503;28;20039;-81
2022/06/08 07:41:42;;;;;;;9.73;5.23;;;;;;;17.57;87.08;100596.09;5107409;28;20028;-81
2022/06/08 07:44:07;;;;;;;8.67;4.67;;;;;;;17.71;87.39;100589.03;5107092;28;20027;-80
2022/06/08 07:46:33;;;;;;;7.37;4.03;;;;;;;17.62;82.62;100585.16;5106963;27;20070;-81
2022/06/08 07:51:43;;;;;;;7.63;3.92;;;;;;;17.82;84.13;100578.16;5093069;28;20105;-80
2022/06/08 07:54:08;;;;;;;7.83;3.97;;;;;;;18.07;85.02;100593.88;5094752;28;20093;-81
2022/06/08 07:56:34;;;;;;;5.63;3.87;;;;;;;17.97;81.34;100597.41;5094106;28;20489;-80
2022/06/08 07:59:00;;;;;;;9.13;4.20;;;;;;;17.99;80.25;100588.91;5093558;28;20047;-81
2022/06/08 08:01:25;;;;;;;6.63;4.18;;;;;;;18.08;81.04;100592.00;5094690;28;21273;-81
2022/06/08 08:03:51;;;;;;;6.50;4.13;;;;;;;18.01;79.38;100586.75;5094764;28;20055;-81
2022/06/08 08:06:16;;;;;;;8.67;4.03;;;;;;;18.04;80.03;100587.03;5093387;28;20036;-81
2022/06/08 08:08:41;;;;;;;8.03;4.07;;;;;;;18.01;79.85;100593.03;5092643;28;20511;-81
2022/06/08 08:11:07;;;;;;;7.87;3.83;;;;;;;18.03;81.47;100596.38;5094768;27;20043;-81
2022/06/08 08:13:32;;;;;;;10.32;3.90;;;;;;;17.97;80.50;100596.59;5093336;28;20050;-81
2022/06/08 08:15:58;;;;;;;9.03;4.00;;;;;;;17.84;79.91;100597.88;5094362;28;20531;-81
2022/06/08 08:18:23;;;;;;;7.57;4.10;;;;;;;17.80;80.93;100597.59;5093259;28;20608;-80
2022/06/08 08:20:49;;;;;;;8.57;4.20;;;;;;;17.77;81.01;100591.81;5093180;28;20035;-82
2022/06/08 08:23:15;;;;;;;7.33;3.63;;;;;;;17.80;81.40;100594.00;5093325;28;20371;-81
2022/06/08 08:25:41;;;;;;;9.57;4.20;;;;;;;17.87;81.47;100573.50;5093441;28;20024;-81
2022/06/08 08:28:07;;;;;;;8.87;3.93;;;;;;;17.84;80.30;100587.75;5093417;28;20052;-81
2022/06/08 08:30:33;;;;;;;7.67;4.10;;;;;;;17.78;80.57;100585.25;5094400;28;21418;-80
2022/06/08 08:32:59;;;;;;;11.03;5.23;;;;;;;17.74;79.98;100587.69;5094307;28;20116;-81
2022/06/08 08:35:25;;;;;;;7.77;3.93;;;;;;;17.76;81.43;100585.53;5092191;28;20088;-81
2022/06/08 08:37:53;;;;;;;9.23;3.93;;;;;;;17.74;81.83;100570.44;5106854;27;20070;-80
2022/06/08 08:40:38;;;;;;;8.73;4.13;;;;;;;17.85;81.98;100594.03;5095149;28;20032;-81
2022/06/08 08:43:08;;;;;;;9.97;4.30;;;;;;;17.78;81.35;100588.00;5091681;28;20032;-80
2022/06/08 08:46:00;;;;;;;8.67;4.10;;;;;;;17.80;80.75;100585.78;5092612;28;20043;-80
2022/06/08 08:48:29;;;;;;;8.33;3.70;;;;;;;17.75;80.22;100583.88;5094091;28;20036;-80
2022/06/08 08:51:12;;;;;;;9.87;4.07;;;;;;;17.72;80.77;100582.47;5091568;28;20039;-81
2022/06/08 08:54:05;;;;;;;10.13;3.90;;;;;;;17.77;82.61;100592.63;5092511;28;20031;-80
2022/06/08 08:56:35;;;;;;;8.17;3.43;;;;;;;17.60;80.84;100583.75;5094320;28;20543;-81
2022/06/08 08:59:05;;;;;;;9.67;4.17;;;;;;;17.45;81.20;100579.03;5092295;28;20520;-80
2022/06/08 09:01:35;;;;;;;8.40;3.83;;;;;;;17.43;80.73;100583.94;5092051;28;20067;-80
2022/06/08 09:04:28;;;;;;;8.43;3.50;;;;;;;17.45;81.72;100587.22;5092413;28;20130;-80
2022/06/08 09:06:54;;;;;;;10.57;3.90;;;;;;;17.42;82.37;100587.78;5078218;28;20580;-80
2022/06/08 09:09:27;;;;;;;7.30;3.70;;;;;;;17.45;83.25;100590.81;5094527;28;20074;-80
2022/06/08 09:11:52;;;;;;;11.23;4.60;;;;;;;17.41;81.94;100589.69;5092021;28;20063;-81
2022/06/08 09:14:24;;;;;;;10.67;4.23;;;;;;;17.42;82.79;100596.81;5092971;28;20493;-80
2022/06/08 09:16:52;;;;;;;8.67;4.00;;;;;;;17.44;82.14;100594.63;5091101;28;20533;-81
2022/06/08 09:19:21;;;;;;;9.80;3.90;;;;;;;17.31;81.33;100590.47;5093411;28;20165;-80
2022/06/08 09:21:48;;;;;;;9.97;4.30;;;;;;;17.24;82.01;100572.59;5092719;28;20038;-80
2022/06/08 09:24:49;;;;;;;10.60;4.13;;;;;;;17.45;83.66;100587.22;5090646;28;20035;-79
2022/06/08 09:27:47;;;;;;;10.47;3.77;;;;;;;17.45;83.07;100587.22;5090949;28;20020;-80
2022/06/08 09:30:23;;;;;;;7.83;3.90;;;;;;;17.32;80.46;100583.88;5090932;28;20031;-79
2022/06/08 09:33:13;;;;;;;10.17;4.00;;;;;;;17.31;81.62;100593.19;5088856;28;20031;-81
2022/06/08 09:35:50;;;;;;;9.43;3.70;;;;;;;17.29;82.37;100589.88;5089680;28;20174;-80
2022/06/08 09:38:16;;;;;;;12.50;3.80;;;;;;;17.23;81.75;100599.16;5092973;28;20044;-82
2022/06/08 09:41:13;;;;;;;9.00;3.50;;;;;;;17.24;81.92;100589.84;5087952;28;20491;-81
2022/06/08 09:44:05;;;;;;;8.43;3.43;;;;;;;17.13;81.37;100588.13;5092938;28;20032;-81
2022/06/08 09:53:17;;;;;;;11.37;4.30;;;;;;;17.02;82.92;100600.91;5092636;28;20440;-80
2022/06/08 09:56:04;;;;;;;10.63;4.00;;;;;;;17.06;85.54;100601.22;5091172;28;20080;-81
2022/06/08 09:58:49;;;;;;;12.03;3.97;;;;;;;16.97;86.93;100596.22;5091729;28;20026;-81
2022/06/08 10:01:29;;;;;;;11.23;4.23;;;;;;;16.96;87.03;100605.50;5090966;28;20063;-81
2022/06/08 10:04:00;;;;;;;10.60;4.20;;;;;;;16.91;87.26;100602.72;5087746;28;20038;-80
2022/06/08 10:06:38;;;;;;;10.87;3.80;;;;;;;16.76;86.81;100595.16;5092221;28;20478;-81
2022/06/08 10:09:12;;;;;;;11.20;3.87;;;;;;;16.76;87.53;100616.25;5090632;28;20476;-81
2022/06/08 10:12:00;;;;;;;10.57;3.70;;;;;;;16.58;88.12;100603.72;5092705;28;20024;-80
2022/06/08 10:14:36;;;;;;;11.63;4.10;;;;;;;16.40;88.99;100593.97;5093920;28;20372;-80
2022/06/08 10:17:23;;;;;;;11.93;4.40;;;;;;;16.33;90.46;100592.28;5087530;28;20031;-81
2022/06/08 10:20:14;;;;;;;9.67;4.50;;;;;;;16.37;91.12;100604.38;5092468;28;20042;-80
2022/06/08 10:22:49;;;;;;;8.60;3.00;;;;;;;16.17;88.88;100606.88;5090486;28;21748;-79
2022/06/08 10:25:38;;;;;;;9.37;3.03;;;;;;;16.03;90.64;100604.50;5093785;28;20382;-81
2022/06/08 10:28:22;;;;;;;9.90;3.23;;;;;;;16.01;90.64;100605.84;5089158;27;20047;-80
2022/06/08 10:30:58;;;;;;;9.98;3.35;;;;;;;15.97;91.16;100610.97;5090986;28;20036;-80
2022/06/08 10:33:31;;;;;;;14.53;3.83;;;;;;;15.92;92.02;100607.34;5089831;28;20088;-81
2022/06/08 10:35:58;;;;;;;13.33;3.73;;;;;;;15.84;92.56;100603.16;5091143;28;20027;-81
2022/06/08 10:38:30;;;;;;;10.13;3.50;;;;;;;15.86;93.18;100601.00;5090032;28;20051;-80
2022/06/08 10:44:03;;;;;;;6.70;3.40;;;;;;;15.77;93.36;100607.94;5089386;28;20506;-80
2022/06/08 10:46:30;;;;;;;12.27;4.07;;;;;;;15.68;94.33;100608.38;5091096;28;20027;-80
2022/06/08 10:48:55;;;;;;;11.37;4.03;;;;;;;15.72;95.52;100610.59;5091048;28;20465;-81
2022/06/08 10:51:28;;;;;;;9.30;4.43;;;;;;;15.68;97.01;100602.94;5086734;28;20043;-80
2022/06/08 10:56:38;;;;;;;12.20;5.60;;;;;;;15.53;99.84;100608.19;5090292;28;21986;-79
2022/06/08 10:59:07;;;;;;;8.30;4.67;;;;;;;15.39;98.50;100607.69;5092052;28;20032;-80
2022/06/08 11:01:57;;;;;;;13.33;5.17;;;;;;;15.19;99.67;100597.28;5090338;28;20032;-80
2022/06/08 11:04:31;;;;;;;10.50;5.40;;;;;;;15.16;100.00;100601.34;5092134;28;20032;-80
2022/06/08 11:07:05;;;;;;;15.90;5.57;;;;;;;15.07;100.00;100604.72;5091478;28;20123;-80
2022/06/08 11:09:33;;;;;;;11.95;5.55;;;;;;;15.06;100.00;100601.16;5091475;28;20088;-80
2022/06/08 11:12:11;;;;;;;12.27;5.50;;;;;;;14.99;100.00;100595.06;5090379;28;20700;-79
2022/06/08 11:14:42;;;;;;;13.00;4.93;;;;;;;14.99;100.00;100604.06;5092135;28;20446;-79
2022/06/08 11:17:17;;;;;;;13.40;5.70;;;;;;;14.97;100.00;100592.56;5091468;28;20715;-79
2022/06/08 11:19:42;;;;;;;;;;;;;;;15.08;100.00;100584.53;5088228;28;20181;-80
2022/06/08 11:22:15;;;;;;;11.77;4.90;;;;;;;15.05;100.00;100576.84;5090235;28;19928;-79
2022/06/08 11:24:52;;;;;;;10.17;4.30;;;;;;;15.00;100.00;100574.84;5094266;28;20042;-80
2022/06/08 11:27:20;;;;;;;12.97;4.80;;;;;;;15.06;99.71;100575.78;5092661;28;20509;-81
2022/06/08 11:29:51;;;;;;;12.10;5.40;;;;;;;15.10;100.00;100563.31;5095423;28;20107;-79
2022/06/08 11:32:51;;;;;;;13.33;5.77;;;;;;;15.19;100.00;100570.00;5094531;28;20271;-80
2022/06/08 11:35:46;;;;;;;13.33;5.80;;;;;;;15.25;100.00;100565.44;5080227;28;20044;-80
2022/06/08 11:38:34;;;;;;;13.33;5.13;;;;;;;15.32;100.00;100561.44;5092823;28;20171;-79
2022/06/08 11:41:25;;;;;;;12.20;4.70;;;;;;;15.20;99.24;100552.53;5093905;28;20364;-81
2022/06/08 11:43:51;;;;;;;10.67;4.70;;;;;;;15.11;99.23;100554.03;5094183;28;20035;-80
2022/06/08 11:46:29;;;;;;;12.33;4.90;;;;;;;15.07;100.00;100548.25;5094613;28;20592;-78
2022/06/08 11:48:56;;;;;;;11.57;4.47;;;;;;;15.03;99.23;100536.19;5094563;28;20122;-81
2022/06/08 11:51:31;;;;;;;8.90;4.70;;;;;;;15.02;100.00;100540.81;5091821;28;20043;-79
2022/06/08 11:53:58;;;;;;;10.53;4.60;;;;;;;14.95;100.00;100534.69;5093769;28;20042;-81
2022/06/08 11:56:29;;;;;;;12.40;5.07;;;;;;;14.90;100.00;100537.34;5093677;28;20040;-80
2022/06/08 11:58:58;;;;;;;11.73;4.60;;;;;;;14.97;100.00;100546.19;5093330;28;20031;-80
2022/06/08 12:01:31;;;;;;;10.87;4.93;;;;;;;15.01;100.00;100541.06;5092164;28;20044;-80
2022/06/08 12:04:07;;;;;;;9.37;4.40;;;;;;;14.94;100.00;100534.94;5092908;28;20031;-81
2022/06/08 12:06:35;;;;;;;6.53;3.13;;;;;;;14.90;100.00;100537.34;5092605;28;20140;-80
2022/06/08 12:09:14;;;;;;;7.87;3.37;;;;;;;14.82;100.00;100526.84;5094597;28;20036;-80
2022/06/08 12:11:44;;;;;;;9.93;3.73;;;;;;;14.79;100.00;100524.63;5093759;28;20050;-81
2022/06/08 12:14:26;;;;;;;9.90;4.40;;;;;;;14.81;100.00;100526.03;5092844;28;21365;-80
2022/06/08 12:17:00;;;;;;;7.50;4.40;;;;;;;14.81;100.00;100522.44;5095093;28;20096;-80
2022/06/08 12:19:38;;;;;;;9.67;4.07;;;;;;;14.76;100.00;100525.94;5093210;28;20513;-80
2022/06/08 12:22:29;;;;;;;10.60;4.10;;;;;;;14.76;100.00;100530.56;5094379;28;20261;-81
2022/06/08 12:25:09;;;;;;;11.13;4.20;;;;;;;14.74;100.00;100524.53;5082847;28;20126;-81
2022/06/08 12:27:53;;;;;;;10.17;4.70;;;;;;;14.71;100.00;100517.66;5093411;28;20104;-81
2022/06/08 12:30:26;;;;;;;7.50;4.43;;;;;;;14.59;100.00;100504.09;5092244;28;20054;-80
2022/06/08 12:32:56;;;;;;;10.87;4.70;;;;;;;14.65;100.00;100513.22;5092207;28;20031;-80
2022/06/08 12:35:40;;;;;;;11.27;4.60;;;;;;;14.60;100.00;100518.53;5092481;28;20035;-81
2022/06/08 12:38:12;;;;;;;10.45;4.63;;;;;;;14.67;100.00;100517.34;5086172;28;20169;-81
2022/06/08 12:40:38;;;;;;;9.63;4.67;;;;;;;14.72;100.00;100510.31;5087722;28;20040;-81
2022/06/08 12:43:06;;;;;;;7.13;4.37;;;;;;;14.72;100.00;100510.31;5084820;28;20050;-83
2022/06/08 12:45:36;;;;;;;11.30;4.90;;;;;;;14.67;100.00;100511.06;5087066;28;20063;-86
2022/06/08 12:48:32;;;;;;;11.67;4.60;;;;;;;14.65;100.00;100513.22;5087166;28;20031;-84
2022/06/08 12:50:58;;;;;;;12.00;5.20;;;;;;;14.59;100.00;100501.38;5086383;28;20030;-83
2022/06/08 12:53:24;;;;;;;11.40;4.57;;;;;;;14.44;100.00;100490.19;5085950;28;20748;-84
2022/06/08 12:55:52;;;;;;;11.60;5.00;;;;;;;14.53;100.00;100497.72;5083982;28;20066;-85
2022/06/08 12:58:19;;;;;;;11.30;4.80;;;;;;;14.46;100.00;100488.88;5085774;28;20036;-82
2022/06/08 13:00:49;;;;;;;11.17;5.17;;;;;;;14.39;100.00;100492.81;5086968;28;20110;-84
2022/06/08 13:03:26;;;;;;;14.13;5.10;;;;;;;14.42;100.00;100486.91;5085965;28;20173;-83
2022/06/08 13:05:53;;;;;;;11.63;4.70;;;;;;;14.46;100.00;100496.22;5086849;28;20522;-82
2022/06/08 13:08:22;;;;;;;11.63;5.23;;;;;;;14.44;100.00;100491.03;5072012;28;20084;-84
2022/06/08 13:10:50;;;;;;;12.70;5.03;;;;;;;14.46;100.00;100488.88;5085165;28;21015;-83
2022/06/08 13:13:22;;;;;;;9.30;5.20;;;;;;;14.34;100.00;100480.75;5090912;28;20048;-82
2022/06/08 13:15:49;;;;;;;10.07;5.70;;;;;;;14.34;100.00;100486.22;5085188;28;20092;-81
2022/06/08 13:18:23;;;;;;;12.63;5.87;;;;;;;14.32;100.00;100482.06;5086680;28;20387;-80
2022/06/08 13:20:49;;;;;;;10.80;5.28;;;;;;;14.32;100.00;100482.91;5085843;28;20032;-83
2022/06/08 13:23:15;;;;;;;11.07;5.90;;;;;;;14.32;100.00;100482.91;5084977;28;20078;-82
2022/06/08 13:25:43;;;;;;;11.20;6.63;;;;;;;14.24;100.00;100480.59;5085790;28;20032;-80
2022/06/08 13:28:35;;;;;;;11.40;6.23;;;;;;;14.25;100.00;100471.34;5085938;28;20552;-81
2022/06/08 13:31:00;;;;;;;11.97;6.80;;;;;;;14.31;100.00;100475.81;5082373;28;20081;-83
2022/06/08 13:36:20;;;;;;;13.97;8.30;;;;;;;14.35;100.00;100482.41;5084874;28;20054;-82
2022/06/08 13:38:47;;;;;;;12.57;8.47;;;;;;;14.47;100.00;100476.91;5085474;28;20100;-86
2022/06/08 13:41:13;;;;;;;11.43;6.27;;;;;;;14.43;100.00;100477.63;5085237;28;20058;-84
2022/06/08 13:43:39;;;;;;;8.00;5.50;;;;;;;14.41;100.00;100480.59;5084596;28;20467;-82
2022/06/08 13:46:08;;;;;;;11.53;5.87;;;;;;;14.42;100.00;100474.09;5084650;28;20046;-82
2022/06/08 13:48:34;;;;;;;9.70;5.83;;;;;;;14.47;100.00;100478.78;5104299;27;20391;-86
2022/06/08 13:51:00;;;;;;;9.87;5.90;;;;;;;14.46;100.00;100472.50;5084786;28;20031;-83
2022/06/08 13:53:27;;;;;;;9.90;6.00;;;;;;;14.46;100.00;100466.25;5084426;28;20172;-83
2022/06/08 13:55:56;;;;;;;11.27;5.90;;;;;;;14.44;100.00;100466.50;5080950;28;20459;-85
2022/06/08 13:58:23;;;;;;;10.73;6.20;;;;;;;14.46;100.00;100471.69;5084661;28;20108;-84
2022/06/08 14:00:56;;;;;;;12.93;6.00;;;;;;;14.47;100.00;100467.88;5085356;28;20086;-83
2022/06/08 14:03:34;;;;;;;14.53;6.33;;;;;;;14.48;100.00;100469.53;5084458;28;20038;-83
2022/06/08 14:14:18;;;;;;;10.00;5.30;;;;;;;14.53;100.00;100461.44;5084865;28;20072;-84
2022/06/08 14:16:53;;;;;;;6.93;5.73;;;;;;;14.52;100.00;100460.63;5084489;28;20028;-83
2022/06/08 14:19:27;;;;;;;10.17;5.80;;;;;;;14.52;100.00;100459.78;5082624;28;20067;-84
2022/06/08 14:21:56;;;;;;;9.80;6.57;;;;;;;14.59;100.00;100465.94;5089547;28;20054;-84
2022/06/08 14:24:26;;;;;;;11.30;7.17;;;;;;;14.64;100.00;100459.75;5084079;28;20128;-83
2022/06/08 14:26:52;;;;;;;8.00;5.97;;;;;;;14.64;100.00;100463.28;5085313;28;20035;-82
2022/06/08 14:29:18;;;;;;;8.80;6.07;;;;;;;14.66;100.00;100466.59;5083988;28;20491;-85
2022/06/08 14:31:45;;;;;;;8.27;6.30;;;;;;;14.67;100.00;100460.09;5083270;28;20036;-83
2022/06/08 14:34:18;;;;;;;7.23;5.87;;;;;;;14.69;100.00;100463.38;5081738;28;20283;-84
2022/06/08 14:36:47;;;;;;;6.95;5.93;;;;;;;14.69;100.00;100460.66;5091633;28;20570;-83
2022/06/08 14:39:16;;;;;;;9.07;7.13;;;;;;;14.73;100.00;100463.72;5083879;28;20135;-83
2022/06/08 14:41:43;;;;;;;8.40;7.53;;;;;;;14.73;100.00;100461.00;5083245;28;20035;-85
2022/06/08 14:44:15;;;;;;;9.73;7.60;;;;;;;14.81;100.00;100455.13;5084260;28;20093;-83
2022/06/08 14:46:43;;;;;;;9.03;8.13;;;;;;;14.75;100.00;100453.38;5085510;28;20491;-83
2022/06/08 14:49:15;;;;;;;9.47;8.10;;;;;;;14.88;100.00;100457.66;5089231;28;20400;-83
2022/06/08 14:51:41;;;;;;;10.07;8.93;;;;;;;14.89;100.00;100459.31;5084459;28;20040;-83
2022/06/08 14:54:13;;;;;;;11.27;10.07;;;;;;;14.88;100.00;100463.13;5084605;28;20477;-84
2022/06/08 14:56:39;;;;;;;12.53;10.60;;;;;;;14.94;100.00;100462.09;5084880;28;20034;-83
2022/06/08 14:59:17;;;;;;;11.80;10.60;;;;;;;14.88;100.00;100463.13;5087194;28;20027;-83
2022/06/08 15:01:45;;;;;;;11.90;10.70;;;;;;;14.89;100.00;100469.41;5085898;28;20142;-84
2022/06/08 15:04:15;;;;;;;12.40;11.10;;;;;;;14.88;100.00;100462.28;5085384;28;20605;-84
2022/06/08 15:06:43;;;;;;;12.90;11.50;;;;;;;14.89;100.00;100463.94;5087997;28;20047;-85
2022/06/08 15:09:09;;;;;;;12.40;10.73;;;;;;;14.87;100.00;100456.00;5082021;28;20028;-83
2022/06/08 15:14:37;;;;;;;14.03;12.50;;;;;;;14.90;100.00;100463.69;5084935;28;20104;-82
2022/06/08 15:17:07;;;;;;;14.47;12.40;;;;;;;14.86;100.00;100454.34;5088105;28;20402;-82
2022/06/08 15:19:38;;;;;;;14.03;12.07;;;;;;;14.85;100.00;100466.34;5088151;28;20494;-83
2022/06/08 15:22:06;;;;;;;13.03;11.63;;;;;;;14.84;100.00;100470.16;5088944;28;20028;-82
2022/06/08 15:24:32;;;;;;;14.70;12.03;;;;;;;14.84;100.00;100470.16;5088451;28;20035;-83
2022/06/08 15:27:05;;;;;;;13.70;12.27;;;;;;;14.83;100.00;100474.75;5092732;28;20474;-83
2022/06/08 15:29:31;;;;;;;14.27;11.80;;;;;;;14.87;100.00;100477.00;5093998;28;20425;-82
2022/06/08 15:31:57;;;;;;;14.07;12.60;;;;;;;14.79;100.00;100470.06;5108360;28;20033;-82
2022/06/08 15:34:32;;;;;;;15.07;13.00;;;;;;;14.82;100.00;100470.41;5110122;27;20016;-82
2022/06/08 15:37:00;;;;;;;16.10;14.40;;;;;;;14.78;100.00;100466.53;5095575;28;20051;-83
2022/06/08 15:39:32;;;;;;;16.70;14.80;;;;;;;14.77;100.00;100467.59;5110089;28;20379;-82
2022/06/08 15:41:59;;;;;;;15.97;13.87;;;;;;;14.78;100.00;100471.13;5115737;28;20047;-82
2022/06/08 15:44:25;;;;;;;17.83;14.13;;;;;;;14.77;100.00;100472.22;5105898;28;20105;-83
2022/06/08 15:46:59;;;;;;;16.43;13.57;;;;;;;14.75;100.00;100474.38;5077290;28;20756;-84
2022/06/08 15:49:29;;;;;;;15.75;13.73;;;;;;;14.76;100.00;100479.56;5094488;28;20479;-83
2022/06/08 15:52:00;;;;;;;20.20;14.77;;;;;;;14.74;100.00;100483.63;5104801;28;20016;-82
2022/06/08 15:54:29;;;;;;;19.87;13.93;;;;;;;14.68;100.00;100486.25;5100570;28;20142;-82
2022/06/08 15:56:58;;;;;;;18.47;14.63;;;;;;;14.72;100.00;100488.50;5093500;28;20043;-84
2022/06/08 15:59:30;;;;;;;19.80;14.57;;;;;;;14.69;100.00;100477.00;5096563;28;21393;-82
2022/06/08 16:01:56;;;;;;;20.43;15.50;;;;;;;14.66;100.00;100488.44;5096095;28;20065;-84
2022/06/08 16:04:22;;;;;;;19.50;15.70;;;;;;;14.71;100.00;100489.56;5095483;28;20115;-83
2022/06/08 16:06:48;;;;;;;20.67;16.80;;;;;;;14.66;100.00;100484.84;5095680;28;20379;-82
2022/06/08 16:09:16;;;;;;;19.83;16.37;;;;;;;14.74;100.00;100495.38;5094567;28;20061;-83
2022/06/08 16:11:41;;;;;;;23.43;17.43;;;;;;;14.72;100.00;100496.69;5101685;28;20467;-81
2022/06/08 16:14:08;;;;;;;21.33;17.00;;;;;;;14.66;100.00;100488.44;5105864;28;20027;-83
2022/06/08 16:16:34;;;;;;;21.40;17.33;;;;;;;14.66;100.00;100495.75;5094754;28;20028;-82
2022/06/08 16:18:59;;;;;;;21.70;16.50;;;;;;;14.71;100.00;100492.31;5092749;28;20573;-82
2022/06/08 16:21:25;;;;;;;21.13;15.17;;;;;;;14.69;100.00;100496.09;5094249;28;20073;-82
2022/06/08 16:23:53;;;;;;;21.73;15.40;;;;;;;14.69;100.00;100484.38;5094401;28;20067;-82
2022/06/08 16:26:19;;;;;;;21.37;15.90;;;;;;;14.75;100.00;100491.56;5093374;28;20039;-82
2022/06/08 16:28:46;;;;;;;21.00;14.63;;;;;;;14.71;100.00;100479.50;5092701;28;20036;-83
2022/06/08 16:31:12;;;;;;;24.83;15.80;;;;;;;14.79;100.00;100491.88;5089224;28;20089;-82
2022/06/08 16:33:38;;;;;;;22.43;15.70;;;;;;;14.83;100.00;100487.59;5092464;28;20059;-83
2022/06/08 16:36:04;;;;;;;25.07;17.23;;;;;;;14.89;100.00;100493.94;5092750;28;20143;-82
2022/06/08 16:38:29;;;;;;;23.57;16.03;;;;;;;14.87;100.00;100487.94;5095733;28;20064;-83
2022/06/08 16:40:55;;;;;;;24.50;16.97;;;;;;;14.90;100.00;100496.41;5094772;28;20501;-82
2022/06/08 16:43:20;;;;;;;23.53;17.43;;;;;;;14.95;100.00;100495.69;5093522;28;20044;-82
2022/06/08 16:45:46;;;;;;;23.73;18.07;;;;;;;14.93;100.00;100493.22;5093800;28;20042;-83
2022/06/08 16:48:14;;;;;;;25.60;17.67;;;;;;;14.94;100.00;100494.84;5088584;28;20035;-83
2022/06/08 16:50:41;;;;;;;24.73;17.50;;;;;;;14.89;100.00;100491.22;5093329;28;20366;-83
2022/06/08 16:53:06;;;;;;;25.93;16.90;;;;;;;14.96;100.00;100500.88;5092710;28;20038;-83
2022/06/08 16:55:33;;;;;;;22.80;16.00;;;;;;;14.96;100.00;100492.72;5093408;28;20444;-84
2022/06/08 17:00:42;;;;;;;23.75;14.73;;;;;;;14.93;100.00;100504.13;5092983;28;20901;-82
2022/06/08 17:03:10;;;;;;;26.93;15.20;;;;;;;14.86;100.00;100500.72;5094407;28;20036;-82
2022/06/08 17:05:35;;;;;;;25.37;14.70;;;;;;;14.87;100.00;100502.38;5111822;27;20038;-83
2022/06/08 17:08:08;;;;;;;26.27;13.60;;;;;;;14.89;100.00;100513.03;5093509;28;20443;-82
2022/06/08 17:10:33;;;;;;;24.77;13.73;;;;;;;14.89;100.00;100515.75;5091951;28;20036;-83
2022/06/08 17:12:59;;;;;;;22.67;13.00;;;;;;;14.84;100.00;100516.53;5088757;28;20100;-83
2022/06/08 17:15:24;;;;;;;21.37;12.53;;;;;;;14.84;100.00;100519.25;5093019;28;20487;-83
2022/06/08 17:17:50;;;;;;;25.87;11.10;;;;;;;14.82;100.00;100524.97;5092047;28;20040;-83
2022/06/08 17:20:19;;;;;;;23.83;12.00;;;;;;;14.84;100.00;100532.88;5090822;28;20051;-85
2022/06/08 17:22:45;;;;;;;24.37;11.50;;;;;;;14.78;100.00;100518.34;5092081;28;20036;-84
2022/06/08 17:25:15;;;;;;;22.50;10.93;;;;;;;14.80;100.00;100531.72;5091793;28;20067;-84
2022/06/08 17:27:42;;;;;;;22.00;10.87;;;;;;;14.85;100.00;100534.56;5089370;28;20039;-83
2022/06/08 17:30:10;;;;;;;18.23;10.13;;;;;;;14.81;100.00;100530.63;5097541;27;20150;-83
2022/06/08 17:32:36;;;;;;;21.70;11.27;;;;;;;14.84;100.00;100532.88;5092997;28;20044;-83
2022/06/08 17:35:04;;;;;;;21.47;9.97;;;;;;;14.84;100.00;100532.88;5094857;28;20043;-83
2022/06/08 17:37:30;;;;;;;21.70;10.50;;;;;;;14.87;100.00;100524.19;5092077;28;20083;-84
2022/06/08 17:39:55;;;;;;;24.60;12.07;;;;;;;14.82;100.00;100518.66;5091711;28;20478;-85
2022/06/08 17:42:21;;;;;;;23.70;11.50;;;;;;;14.85;100.00;100526.38;5093231;28;20057;-83
2022/06/08 17:44:48;;;;;;;23.33;11.63;;;;;;;14.85;100.00;100534.56;5091322;28;20130;-83
2022/06/08 17:47:14;;;;;;;24.27;11.47;;;;;;;14.87;100.00;100531.56;5085829;28;20044;-84
2022/06/08 17:49:42;;;;;;;22.80;11.83;;;;;;;14.76;100.00;100514.22;5093233;28;20046;-83
2022/06/08 17:52:08;;;;;;;22.67;11.77;;;;;;;14.84;100.00;100524.69;5092601;28;20458;-83
2022/06/08 17:54:33;;;;;;;23.53;12.17;;;;;;;14.84;100.00;100521.97;5091826;28;20388;-83
2022/06/08 17:56:59;;;;;;;23.03;11.67;;;;;;;14.85;100.00;100523.63;5092305;28;20486;-83
2022/06/08 17:59:26;;;;;;;22.57;11.40;;;;;;;14.88;100.00;100531.31;5091597;28;20043;-84
2022/06/08 18:01:51;;;;;;;24.03;12.67;;;;;;;14.86;100.00;100533.44;5090784;28;20023;-82
2022/06/08 18:04:22;;;;;;;24.53;12.73;;;;;;;14.90;100.00;100537.34;5090877;28;20408;-82
2022/06/08 18:06:48;;;;;;;28.00;12.10;;;;;;;14.88;100.00;100525.88;5091929;28;20042;-83
2022/06/08 18:09:15;;;;;;;22.43;12.43;;;;;;;14.90;100.00;100526.41;5092440;28;20080;-84
2022/06/08 18:11:59;;;;;;;24.93;11.97;;;;;;;14.94;100.00;100527.56;5092394;28;20130;-85
2022/06/08 18:14:34;;;;;;;21.98;12.15;;;;;;;14.96;100.00;100538.25;5094803;28;20363;-85
2022/06/08 18:17:00;;;;;;;24.73;13.17;;;;;;;14.95;100.00;100537.41;5092341;28;20032;-84
2022/06/08 18:19:27;;;;;;;24.13;12.83;;;;;;;14.93;100.00;100544.19;5093675;28;20584;-84
2022/06/08 18:21:53;;;;;;;23.50;12.27;;;;;;;14.95;100.00;100544.78;5092984;28;20073;-84
2022/06/08 18:24:21;;;;;;;23.73;12.83;;;;;;;14.99;100.00;100548.69;5093891;28;20562;-83
2022/06/08 18:26:52;;;;;;;25.90;12.73;;;;;;;14.99;100.00;100548.69;5093376;28;20031;-84
2022/06/08 18:29:22;;;;;;;25.73;12.80;;;;;;;14.99;100.00;100546.75;5092322;28;20172;-84
2022/06/08 18:31:48;;;;;;;26.17;12.93;;;;;;;14.98;100.00;100550.56;5092722;28;20872;-83
2022/06/08 18:34:13;;;;;;;26.80;12.97;;;;;;;15.03;100.00;100550.66;5091984;28;20055;-83
2022/06/08 18:36:39;;;;;;;21.70;12.90;;;;;;;14.90;100.00;100529.16;5092750;28;20497;-84